Time;durP1;ratioP1;P1;durP2;ratioP2;P2;SDS_P1;SDS_P2;PMS_P1;PMS_P2;Temp;Humidity;BMP_temperature;BMP_pressure;BME280_temperature;BME280_humidity;BME280_pressure;Samples;Min_cycle;Max_cycle;Signal;HPM_P1;HPM_P2
2021/08/13 00:01:58;;;;;;;14.43;9.40;;;;;;;14.89;65.70;100882.41;2105099;84;27580;-61
2021/08/13 00:04:59;;;;;;;16.48;9.23;;;;;;;14.86;65.62;100877.19;2089562;84;29877;-61
2021/08/13 00:08:01;;;;;;;12.93;8.68;;;;;;;14.84;65.77;100885.84;2104501;84;32038;-61
2021/08/13 00:11:03;;;;;;;14.55;8.98;;;;;;;14.81;65.81;100881.97;2104146;84;33209;-61
2021/08/13 00:14:07;;;;;;;11.55;8.68;;;;;;;14.79;65.85;100878.02;2097425;84;29744;-61
2021/08/13 00:17:09;;;;;;;11.93;8.55;;;;;;;14.77;65.97;100885.80;2063143;86;27722;-61
2021/08/13 00:20:13;;;;;;;14.58;9.28;;;;;;;14.73;65.98;100889.16;2063195;86;29074;-61
2021/08/13 00:23:15;;;;;;;17.25;9.53;;;;;;;14.71;65.95;100892.42;2063265;85;31861;-61
2021/08/13 00:26:17;;;;;;;10.03;8.48;;;;;;;14.68;66.07;100892.13;2090951;84;33774;-61
2021/08/13 00:29:19;;;;;;;11.83;8.10;;;;;;;14.65;66.14;100892.72;2061428;85;30525;-61
2021/08/13 00:32:21;;;;;;;13.55;9.80;;;;;;;14.62;66.36;100883.48;2062030;85;27769;-61
2021/08/13 00:35:23;;;;;;;17.35;9.85;;;;;;;14.57;66.42;100873.83;2091101;84;29449;-61
2021/08/13 00:38:25;;;;;;;13.13;9.73;;;;;;;14.55;66.56;100877.09;2104577;84;32191;-61
2021/08/13 00:41:27;;;;;;;12.50;8.78;;;;;;;14.53;66.91;100874.95;2104348;84;34085;-61
2021/08/13 00:44:30;;;;;;;15.72;9.33;;;;;;;14.54;66.77;100874.49;2087740;84;29715;-61
2021/08/13 00:47:32;;;;;;;12.60;9.73;;;;;;;14.52;66.82;100866.97;2063425;86;27627;-61
2021/08/13 00:50:34;;;;;;;14.10;9.90;;;;;;;14.50;66.74;100864.34;2062968;86;29845;-62
2021/08/13 00:53:36;;;;;;;12.18;9.45;;;;;;;14.47;66.88;100865.89;2067150;84;32263;-61
2021/08/13 00:56:38;;;;;;;11.97;9.88;;;;;;;14.46;66.97;100861.91;2104675;84;33572;-62
2021/08/13 00:59:41;;;;;;;13.05;8.90;;;;;;;14.43;66.96;100862.47;2104365;84;30192;-61
2021/08/13 01:02:43;;;;;;;13.90;9.13;;;;;;;14.40;66.97;100861.78;2090056;84;27765;-61
2021/08/13 01:05:45;;;;;;;12.55;8.63;;;;;;;14.37;66.99;100862.84;2063280;86;29076;-61
2021/08/13 01:08:47;;;;;;;10.50;9.10;;;;;;;14.36;67.05;100865.60;2063136;84;32380;-61
2021/08/13 01:12:22;;;;;;;14.53;9.58;;;;;;;14.33;67.19;100866.66;2067820;84;32975;-62
2021/08/13 01:15:26;;;;;;;10.98;7.67;;;;;;;14.30;67.11;100865.97;1999719;89;29359;-61
2021/08/13 01:18:38;;;;;;;12.70;8.78;;;;;;;14.25;67.36;100860.81;2040118;86;27629;-61
2021/08/13 01:21:57;;;;;;;11.28;8.68;;;;;;;14.22;67.48;100856.48;2068963;84;28918;-61
2021/08/13 01:25:02;;;;;;;12.73;9.38;;;;;;;14.19;67.51;100860.69;2069944;86;32343;-61
2021/08/13 01:28:30;;;;;;;13.20;8.58;;;;;;;14.16;67.54;100862.20;2068543;85;37232;-62
2021/08/13 01:32:02;;;;;;;14.20;9.08;;;;;;;14.13;67.70;100858.35;2061825;86;30694;-61
2021/08/13 01:35:26;;;;;;;12.45;8.85;;;;;;;14.11;67.76;100851.69;1906741;93;27903;-60
2021/08/13 01:38:28;;;;;;;12.58;9.33;;;;;;;14.09;67.76;100850.05;1890578;92;29842;-60
2021/08/13 01:41:36;;;;;;;12.70;9.30;;;;;;;14.06;68.02;100852.44;1882617;94;31079;-60
2021/08/13 01:44:39;;;;;;;15.25;9.33;;;;;;;14.04;67.95;100853.00;1882467;94;32949;-60
2021/08/13 01:47:42;;;;;;;12.93;8.95;;;;;;;14.05;68.16;100854.73;1892066;92;30495;-60
2021/08/13 01:50:45;;;;;;;11.40;8.93;;;;;;;14.05;68.21;100852.50;1887669;93;27816;-60
2021/08/13 01:53:48;;;;;;;14.07;8.88;;;;;;;14.04;68.11;100850.30;1891034;93;29694;-60
2021/08/13 01:56:50;;;;;;;15.83;9.35;;;;;;;14.04;68.18;100847.61;1909699;93;32033;-61
2021/08/13 01:59:53;;;;;;;14.63;9.05;;;;;;;14.03;68.49;100844.98;1885710;94;33079;-60
2021/08/13 02:02:56;;;;;;;16.87;10.68;;;;;;;14.04;68.40;100848.95;1885746;94;29548;-60
2021/08/13 02:05:58;;;;;;;14.10;10.08;;;;;;;14.06;68.56;100848.39;1886094;94;27814;-60
2021/08/13 02:09:01;;;;;;;12.88;9.93;;;;;;;14.08;68.60;100845.60;1954029;88;29129;-60
2021/08/13 02:12:04;;;;;;;13.60;9.53;;;;;;;14.12;68.57;100843.14;2110489;83;31039;-60
2021/08/13 02:15:10;;;;;;;13.48;9.65;;;;;;;14.14;68.56;100847.97;2141910;83;33865;-60
2021/08/13 02:18:21;;;;;;;;;;;;;;;14.13;68.48;100843.04;2120367;83;29554;-60
2021/08/13 02:21:24;;;;;;;13.08;9.08;;;;;;;14.14;68.67;100843.92;2096708;84;27678;-60
2021/08/13 02:24:26;;;;;;;13.83;9.60;;;;;;;14.12;68.58;100843.14;2096265;84;29721;-60
2021/08/13 02:27:29;;;;;;;13.43;9.68;;;;;;;14.09;68.65;100834.73;2109622;83;31498;-60
2021/08/13 02:30:31;;;;;;;12.18;8.88;;;;;;;14.08;68.79;100832.98;2142228;81;33167;-60
2021/08/13 02:33:33;;;;;;;12.95;9.08;;;;;;;14.08;68.76;100825.39;2142250;83;30313;-60
2021/08/13 02:36:49;;;;;;;12.43;9.53;;;;;;;14.09;68.89;100833.38;2140754;83;27724;-60
2021/08/13 02:40:02;;;;;;;16.23;9.95;;;;;;;14.09;68.98;100829.83;2141572;83;29181;-60
2021/08/13 02:43:08;;;;;;;12.05;8.98;;;;;;;14.11;69.05;100831.97;2141935;83;31244;-61
2021/08/13 02:46:12;;;;;;;14.10;9.83;;;;;;;14.13;69.05;100829.57;2103870;83;34163;-60
2021/08/13 02:49:15;;;;;;;15.58;11.33;;;;;;;14.15;68.99;100830.81;2091009;84;29368;-61
2021/08/13 02:52:22;;;;;;;15.32;10.48;;;;;;;14.17;69.02;100826.22;2071702;84;27623;-60
2021/08/13 02:55:48;;;;;;;13.28;10.30;;;;;;;14.20;69.03;100821.16;2038227;85;28676;-61
2021/08/13 02:58:58;;;;;;;17.02;10.15;;;;;;;14.23;69.01;100824.53;2038110;87;31525;-60
2021/08/13 03:02:02;;;;;;;21.48;11.10;;;;;;;14.26;69.26;100822.12;2037883;87;32971;-65
2021/08/13 03:05:07;;;;;;;15.40;11.63;;;;;;;14.29;69.22;100826.00;2096458;84;29338;-62
2021/08/13 03:08:10;;;;;;;19.42;12.80;;;;;;;14.34;69.12;100828.43;2104336;84;27633;-60
2021/08/13 03:11:13;;;;;;;18.23;11.45;;;;;;;14.38;69.16;100821.45;2104286;84;29056;-60
2021/08/13 03:14:20;;;;;;;14.50;11.40;;;;;;;14.42;69.11;100822.99;2085151;84;31920;-61
2021/08/13 03:17:22;;;;;;;14.70;10.23;;;;;;;14.47;69.06;100819.17;2071771;85;33635;-61
2021/08/13 03:20:27;;;;;;;15.95;10.75;;;;;;;14.51;69.04;100835.07;2071645;84;29386;-60
2021/08/13 03:23:32;;;;;;;16.32;10.35;;;;;;;14.55;69.41;100829.05;2085800;84;27650;-61
2021/08/13 03:26:34;;;;;;;16.20;10.80;;;;;;;14.60;69.47;100836.38;2072098;84;28657;-61
2021/08/13 03:29:36;;;;;;;15.58;10.35;;;;;;;14.64;69.14;100834.39;2071707;85;30982;-60
2021/08/13 03:32:39;;;;;;;18.60;11.22;;;;;;;14.67;68.97;100831.02;2093558;84;34162;-61
2021/08/13 03:35:45;;;;;;;17.10;10.75;;;;;;;14.71;68.95;100829.92;2104246;84;29953;-61
2021/08/13 03:38:48;;;;;;;14.45;10.38;;;;;;;14.74;68.73;100826.17;2083005;84;27655;-59
2021/08/13 03:41:51;;;;;;;19.77;10.82;;;;;;;14.78;68.75;100828.20;2091788;84;29069;-63
2021/08/13 03:44:53;;;;;;;19.62;12.13;;;;;;;14.79;68.65;100820.49;2071518;85;31022;-60
2021/08/13 03:47:54;;;;;;;12.10;10.10;;;;;;;14.79;68.61;100824.08;2071267;84;34121;-59
2021/08/13 03:50:58;;;;;;;17.67;11.25;;;;;;;14.80;68.56;100808.28;2078870;84;29358;-60
2021/08/13 03:54:00;;;;;;;18.05;11.30;;;;;;;14.86;68.58;100804.35;2103987;84;28289;-59
2021/08/13 03:57:03;;;;;;;17.45;11.43;;;;;;;14.89;68.53;100803.68;2104018;84;29409;-59
2021/08/13 04:00:07;;;;;;;18.00;11.10;;;;;;;14.93;68.54;100803.50;2104253;84;31172;-59
2021/08/13 04:03:10;;;;;;;18.85;10.40;;;;;;;14.99;68.52;100802.65;2087492;84;33924;-59
2021/08/13 04:06:12;;;;;;;16.42;10.90;;;;;;;15.03;68.42;100806.91;2104000;84;29300;-59
2021/08/13 04:09:15;;;;;;;16.02;10.60;;;;;;;15.13;68.46;100806.34;2087667;84;27706;-59
2021/08/13 04:12:18;;;;;;;15.40;10.03;;;;;;;15.22;68.35;100799.05;2071631;84;29904;-60
2021/08/13 04:15:21;;;;;;;22.52;16.32;;;;;;;15.31;68.25;100811.08;2073542;84;31864;-59
2021/08/13 04:18:24;;;;;;;18.60;11.28;;;;;;;15.39;68.12;100816.89;2071763;85;33754;-60
2021/08/13 04:21:30;;;;;;;14.33;10.35;;;;;;;15.45;68.07;100807.08;2071869;85;29340;-59
2021/08/13 04:24:37;;;;;;;19.30;10.80;;;;;;;15.49;67.95;100811.30;2079358;84;27597;-59
2021/08/13 04:27:42;;;;;;;19.40;10.32;;;;;;;15.55;67.91;100812.77;2104540;84;29321;-59
2021/08/13 04:30:51;;;;;;;15.93;10.48;;;;;;;15.59;67.82;100818.34;2104430;84;31016;-60
2021/08/13 04:33:53;;;;;;;18.85;10.85;;;;;;;15.65;67.78;100822.48;2087508;84;33818;-60
2021/08/13 04:36:55;;;;;;;14.45;10.28;;;;;;;15.74;67.61;100825.98;2099424;84;29437;-60
2021/08/13 04:39:58;;;;;;;18.82;11.20;;;;;;;15.87;67.63;100821.17;2104535;84;27705;-60
2021/08/13 04:43:00;;;;;;;17.32;11.57;;;;;;;15.97;67.44;100820.95;2098105;84;29921;-59
2021/08/13 04:46:03;;;;;;;20.10;10.30;;;;;;;16.07;67.30;100830.70;2072100;84;32027;-60
2021/08/13 04:49:05;;;;;;;17.12;10.93;;;;;;;16.16;67.24;100826.53;2071638;85;33816;-60
2021/08/13 04:52:07;;;;;;;17.05;10.82;;;;;;;16.25;67.13;100832.22;2105464;84;29338;-60
2021/08/13 04:55:10;;;;;;;14.38;11.10;;;;;;;16.36;66.96;100834.72;2138713;82;27778;-60
2021/08/13 04:58:13;;;;;;;18.17;11.40;;;;;;;16.41;66.75;100835.27;2144455;83;28635;-60
2021/08/13 05:01:16;;;;;;;20.90;11.50;;;;;;;16.61;66.92;100835.31;2118024;82;31058;-60
2021/08/13 05:04:19;;;;;;;18.45;10.28;;;;;;;16.93;66.72;100828.69;2108390;84;34246;-59
2021/08/13 05:07:23;;;;;;;14.68;10.75;;;;;;;17.51;66.73;100832.45;2109129;84;29691;-60
2021/08/13 05:10:29;;;;;;;14.90;10.90;;;;;;;18.04;66.15;100831.80;2117258;82;27718;-60
2021/08/13 05:13:35;;;;;;;16.87;10.58;;;;;;;19.01;65.04;100838.32;2135047;82;28814;-60
2021/08/13 05:16:39;;;;;;;12.23;8.65;;;;;;;19.01;65.04;100838.32;2142528;82;31909;-60
2021/08/13 05:19:43;;;;;;;12.28;9.38;;;;;;;19.20;63.00;100827.73;2108350;84;32814;-60
2021/08/13 05:22:45;;;;;;;16.52;11.20;;;;;;;19.26;63.14;100850.36;2108839;84;29381;-59
2021/08/13 05:25:47;;;;;;;17.77;9.88;;;;;;;19.37;62.96;100848.17;2108922;84;28248;-59
2021/08/13 05:28:49;;;;;;;18.35;9.95;;;;;;;19.56;62.62;100833.99;2148124;82;29334;-60
2021/08/13 05:31:52;;;;;;;15.10;10.68;;;;;;;19.85;62.56;100834.90;2151572;82;31394;-60
2021/08/13 05:34:54;;;;;;;16.60;10.82;;;;;;;20.11;61.80;100837.37;2151405;82;34305;-60
2021/08/13 05:37:58;;;;;;;15.23;10.75;;;;;;;20.19;61.25;100836.24;2125490;82;30515;-65
2021/08/13 05:41:00;;;;;;;15.50;10.67;;;;;;;20.20;61.11;100837.13;2109059;84;28320;-63
2021/08/13 05:44:01;;;;;;;15.15;10.43;;;;;;;20.23;60.92;100838.23;2138749;82;29902;-65
2021/08/13 05:47:04;;;;;;;21.50;10.58;;;;;;;20.22;60.61;100840.59;2149088;82;31025;-64
2021/08/13 05:50:09;;;;;;;23.05;11.45;;;;;;;20.28;60.63;100839.21;2150443;82;32977;-64
2021/08/13 05:53:11;;;;;;;15.85;10.75;;;;;;;20.33;60.36;100841.92;2142106;83;30088;-65
2021/08/13 05:56:13;;;;;;;17.20;10.18;;;;;;;20.37;60.39;100847.97;2141946;83;27667;-72
2021/08/13 05:59:15;;;;;;;14.50;10.88;;;;;;;20.42;60.22;100854.41;2103929;83;28694;-71
2021/08/13 06:02:18;;;;;;;22.40;9.85;;;;;;;20.47;59.97;100846.70;2096549;84;31976;-72
2021/08/13 06:05:20;;;;;;;18.77;9.88;;;;;;;20.78;59.90;100849.14;2096387;84;33759;-71
2021/08/13 06:08:22;;;;;;;19.60;9.83;;;;;;;21.31;59.56;100847.41;2120266;83;29346;-72
2021/08/13 06:11:23;;;;;;;13.85;10.55;;;;;;;21.78;58.52;100841.53;2141745;83;27681;-72
2021/08/13 06:14:25;;;;;;;17.07;9.90;;;;;;;22.10;57.60;100843.75;2141836;83;28648;-72
2021/08/13 06:17:27;;;;;;;20.57;9.60;;;;;;;22.39;56.71;100840.23;2132232;83;31854;-72
2021/08/13 06:20:29;;;;;;;16.77;8.95;;;;;;;22.91;56.82;100843.64;2096420;83;32979;-73
2021/08/13 06:23:32;;;;;;;19.30;9.53;;;;;;;23.48;56.15;100844.28;2096671;84;30138;-72
2021/08/13 06:26:35;;;;;;;15.35;8.90;;;;;;;24.11;55.93;100851.48;2096643;84;27625;-61
2021/08/13 06:29:40;;;;;;;14.90;8.53;;;;;;;24.63;54.85;100838.58;2098933;83;28795;-61
2021/08/13 06:32:42;;;;;;;20.80;8.73;;;;;;;25.25;52.34;100833.68;2096505;84;30952;-61
2021/08/13 06:35:44;;;;;;;19.12;9.43;;;;;;;25.82;53.08;100833.72;2096745;84;33043;-61
2021/08/13 06:38:46;;;;;;;13.08;8.90;;;;;;;26.43;51.88;100832.30;2099107;83;29384;-61
2021/08/13 06:41:48;;;;;;;24.37;8.83;;;;;;;26.95;50.69;100837.23;2096445;84;27621;-61
2021/08/13 06:44:50;;;;;;;16.60;7.83;;;;;;;27.43;50.71;100841.00;2096570;84;29638;-61
2021/08/13 06:47:52;;;;;;;15.53;8.18;;;;;;;27.96;49.02;100843.82;2109315;83;31915;-60
2021/08/13 06:50:54;;;;;;;19.42;7.40;;;;;;;28.30;48.15;100849.56;2141953;82;32582;-61
2021/08/13 06:53:57;;;;;;;15.68;7.95;;;;;;;28.74;47.96;100839.88;2141581;83;30562;-61
2021/08/13 06:56:59;;;;;;;12.18;7.33;;;;;;;29.19;47.03;100838.13;2141990;83;27806;-60
2021/08/13 07:00:07;;;;;;;14.95;6.35;;;;;;;29.57;46.89;100837.27;2140787;83;29263;-60
2021/08/13 07:03:10;;;;;;;12.07;6.97;;;;;;;30.07;46.48;100836.23;2141600;83;31077;-61
2021/08/13 07:06:12;;;;;;;13.83;6.17;;;;;;;30.52;45.43;100839.42;2127103;83;33905;-58
2021/08/13 07:09:14;;;;;;;12.30;6.33;;;;;;;30.97;44.72;100846.21;2096206;84;30309;-60
2021/08/13 07:12:17;;;;;;;9.20;5.97;;;;;;;31.34;44.11;100848.39;2096423;84;27677;-60
2021/08/13 07:15:19;;;;;;;10.90;6.92;;;;;;;31.73;43.50;100844.75;2097211;83;29548;-60
2021/08/13 07:18:21;;;;;;;10.82;6.87;;;;;;;31.98;42.31;100844.57;2141569;83;32286;-61
2021/08/13 07:21:24;;;;;;;13.58;6.55;;;;;;;32.25;42.07;100841.07;2141210;83;33837;-61
2021/08/13 07:24:25;;;;;;;13.55;7.10;;;;;;;32.55;41.73;100839.39;2141905;83;30657;-61
2021/08/13 07:27:28;;;;;;;11.05;6.03;;;;;;;32.72;41.20;100836.55;2109375;83;27615;-59
2021/08/13 07:30:30;;;;;;;15.58;6.95;;;;;;;32.99;40.09;100833.00;2096479;83;29499;-58
2021/08/13 07:33:32;;;;;;;18.50;7.53;;;;;;;33.17;39.32;100824.05;2096137;84;32272;-59
2021/08/13 07:36:34;;;;;;;9.98;6.08;;;;;;;33.39;38.92;100820.55;2114814;83;32956;-59
2021/08/13 07:39:37;;;;;;;8.95;6.37;;;;;;;33.47;38.94;100823.08;2141708;83;30524;-58
2021/08/13 07:42:41;;;;;;;9.68;6.50;;;;;;;33.67;38.12;100822.75;2141766;83;27674;-59
2021/08/13 07:45:43;;;;;;;12.05;6.25;;;;;;;33.79;37.65;100815.44;2136918;83;29936;-59
2021/08/13 07:48:44;;;;;;;13.62;6.58;;;;;;;34.06;37.96;100816.24;2096438;84;32437;-59
2021/08/13 07:51:47;;;;;;;12.53;6.53;;;;;;;34.26;37.26;100814.44;2101363;84;34212;-59
2021/08/13 07:54:49;;;;;;;11.80;6.45;;;;;;;34.56;37.09;100819.44;2108569;84;28831;-59
2021/08/13 07:57:51;;;;;;;12.58;6.17;;;;;;;34.81;36.77;100813.92;2143172;82;27761;-59
2021/08/13 08:00:53;;;;;;;14.03;5.37;;;;;;;35.12;36.31;100813.59;2151236;82;29514;-59
2021/08/13 08:03:55;;;;;;;10.45;5.37;;;;;;;35.30;35.28;100810.03;2151309;82;31053;-59
2021/08/13 08:06:57;;;;;;;8.18;5.60;;;;;;;35.38;35.20;100806.09;2129918;82;33822;-60
2021/08/13 08:09:59;;;;;;;6.03;5.42;;;;;;;35.49;34.22;100810.09;2108289;84;30525;-59
2021/08/13 08:13:02;;;;;;;10.88;5.90;;;;;;;35.52;34.16;100809.61;2108298;84;27712;-59
2021/08/13 08:16:04;;;;;;;7.17;5.28;;;;;;;35.67;34.09;100807.30;2116559;82;28648;-59
2021/08/13 08:19:06;;;;;;;10.58;5.45;;;;;;;35.62;33.10;100812.73;2151209;82;32241;-60
2021/08/13 08:22:09;;;;;;;7.72;5.12;;;;;;;35.68;33.59;100812.35;2151479;82;33747;-59
2021/08/13 08:25:11;;;;;;;9.00;4.65;;;;;;;35.88;33.04;100803.75;2151170;82;30187;-59
2021/08/13 08:28:12;;;;;;;7.80;5.22;;;;;;;35.93;32.96;100803.91;2148497;82;28019;-59
2021/08/13 08:31:14;;;;;;;13.30;5.90;;;;;;;36.02;32.60;100802.53;2151256;82;29530;-59
2021/08/13 08:34:17;;;;;;;5.60;4.45;;;;;;;35.97;32.36;100808.50;2151488;82;30820;-60
2021/08/13 08:37:20;;;;;;;9.67;6.00;;;;;;;36.07;32.14;100816.32;2126558;82;34354;-60
2021/08/13 08:40:34;;;;;;;5.97;4.85;;;;;;;36.07;32.14;100816.32;2108705;84;30482;-59
2021/08/13 08:43:37;;;;;;;5.17;4.28;;;;;;;36.16;32.30;100823.27;2108764;84;27634;-59
2021/08/13 08:46:39;;;;;;;10.63;5.15;;;;;;;36.13;31.36;100812.05;2123278;82;28677;-59
2021/08/13 08:49:43;;;;;;;8.80;5.00;;;;;;;36.00;31.46;100815.85;2152275;82;31989;-59
2021/08/13 08:52:44;;;;;;;;;;;;;;;35.81;31.34;100806.62;2145254;82;33089;-59
2021/08/13 08:55:47;;;;;;;9.00;4.65;;;;;;;35.76;31.43;100807.84;2141538;83;29578;-60
2021/08/13 08:58:50;;;;;;;7.23;4.97;;;;;;;35.66;31.66;100801.97;2142175;83;27720;-59
2021/08/13 09:01:52;;;;;;;6.83;4.83;;;;;;;35.46;31.27;100812.78;2118593;83;29766;-59
2021/08/13 09:04:54;;;;;;;9.25;5.22;;;;;;;35.24;31.74;100812.32;2096223;84;31205;-68
2021/08/13 09:07:56;;;;;;;6.97;4.90;;;;;;;35.08;32.06;100804.85;2096172;84;35047;-70
2021/08/13 09:10:58;;;;;;;5.37;4.83;;;;;;;34.88;31.67;100813.87;2105600;83;29312;-67
2021/08/13 09:14:06;;;;;;;7.72;4.70;;;;;;;34.62;31.89;100806.03;2141994;83;28190;-66
2021/08/13 09:17:08;;;;;;;8.98;5.22;;;;;;;34.38;32.26;100807.09;2141136;83;28232;-61
2021/08/13 09:20:12;;;;;;;5.67;4.37;;;;;;;34.17;31.97;100802.71;2141992;83;32047;-61
2021/08/13 09:23:43;;;;;;;7.92;5.05;;;;;;;34.01;32.06;100798.48;2099294;83;33673;-61
2021/08/13 09:26:45;;;;;;;7.78;5.03;;;;;;;33.90;32.33;100802.28;2134361;83;29326;-60
2021/08/13 09:30:09;;;;;;;6.75;5.15;;;;;;;33.77;32.06;100798.97;2123176;83;27693;-59
2021/08/13 09:33:11;;;;;;;8.80;4.90;;;;;;;33.43;31.57;100797.34;2096921;84;29065;-60
2021/08/13 09:36:13;;;;;;;5.50;4.58;;;;;;;33.14;32.05;100803.10;2096378;84;32347;-59
2021/08/13 09:39:16;;;;;;;5.58;4.50;;;;;;;33.01;31.87;100798.39;2104823;83;34210;-60
2021/08/13 09:42:19;;;;;;;5.95;5.08;;;;;;;32.86;32.20;100797.75;2141789;83;30172;-59
2021/08/13 09:45:21;;;;;;;8.63;5.03;;;;;;;32.75;32.01;100798.35;2142113;83;27588;-60
2021/08/13 09:48:25;;;;;;;8.90;4.67;;;;;;;32.64;32.94;100806.25;2141637;83;29927;-59
2021/08/13 09:51:35;;;;;;;5.67;4.60;;;;;;;32.54;32.52;100812.72;2099187;83;30891;-60
2021/08/13 09:54:38;;;;;;;7.12;4.87;;;;;;;32.39;32.52;100810.13;2071666;84;33702;-60
2021/08/13 09:57:48;;;;;;;6.45;4.85;;;;;;;32.09;32.62;100805.72;2071613;85;30213;-59
2021/08/13 10:00:50;;;;;;;6.28;4.83;;;;;;;31.91;32.71;100793.81;2075501;84;27656;-60
2021/08/13 10:03:53;;;;;;;7.08;5.08;;;;;;;31.77;33.37;100790.66;2071595;85;29738;-59
2021/08/13 10:06:56;;;;;;;8.58;4.70;;;;;;;31.71;33.50;100792.84;2071561;85;31696;-59
2021/08/13 10:10:09;;;;;;;7.15;5.15;;;;;;;31.57;33.65;100785.82;2082015;84;34168;-59
2021/08/13 10:13:12;;;;;;;6.20;4.62;;;;;;;31.51;34.20;100783.85;2101763;84;29905;-61
2021/08/13 10:16:27;;;;;;;9.63;5.12;;;;;;;31.49;34.27;100783.20;2072237;85;27717;-60
2021/08/13 10:19:28;;;;;;;6.72;5.20;;;;;;;31.45;34.08;100780.50;2029960;86;28665;-60
2021/08/13 10:22:31;;;;;;;8.20;4.75;;;;;;;31.45;34.28;100781.88;2104001;84;31908;-60
2021/08/13 10:25:35;;;;;;;9.23;5.17;;;;;;;31.46;34.45;100778.05;2104113;84;34184;-60
2021/08/13 10:28:39;;;;;;;8.35;4.87;;;;;;;31.43;34.26;100790.95;2097011;84;29352;-60
2021/08/13 10:31:41;;;;;;;8.73;6.15;;;;;;;31.41;34.64;100777.29;2104141;84;27677;-60
2021/08/13 10:34:43;;;;;;;10.72;5.03;;;;;;;31.40;34.64;100777.50;2091156;82;30081;-60
2021/08/13 10:37:45;;;;;;;6.03;5.10;;;;;;;31.39;34.44;100780.78;2072215;84;32539;-60
2021/08/13 10:40:47;;;;;;;9.40;4.80;;;;;;;31.32;34.17;100770.20;2101683;84;33213;-60
2021/08/13 10:43:51;;;;;;;7.65;4.65;;;;;;;31.25;34.44;100774.83;2071470;85;29479;-60
2021/08/13 10:46:55;;;;;;;9.65;5.20;;;;;;;31.11;34.20;100771.09;2071804;85;36207;-60
2021/08/13 10:49:58;;;;;;;6.67;5.20;;;;;;;31.00;33.80;100763.64;2098386;84;29916;-60
2021/08/13 10:53:00;;;;;;;8.88;5.08;;;;;;;30.86;34.35;100761.28;2122507;83;32419;-62
2021/08/13 10:56:04;;;;;;;11.88;4.97;;;;;;;30.82;34.32;100760.50;2141508;83;34159;-60
2021/08/13 10:59:08;;;;;;;6.53;5.03;;;;;;;30.72;33.99;100755.30;2117930;83;30518;-60
2021/08/13 11:02:16;;;;;;;9.37;5.80;;;;;;;30.67;34.80;100760.59;2096676;84;27591;-61
2021/08/13 11:05:54;;;;;;;7.50;5.92;;;;;;;30.67;34.84;100755.06;2096549;84;28074;-61
2021/08/13 11:08:57;;;;;;;7.87;5.50;;;;;;;30.66;34.78;100753.35;2098661;83;31547;-61
2021/08/13 11:12:03;;;;;;;7.43;4.77;;;;;;;30.61;34.77;100748.42;2096725;83;32755;-61
2021/08/13 11:15:06;;;;;;;4.08;3.67;;;;;;;30.57;35.18;100742.41;2096591;84;29329;-61
2021/08/13 11:18:33;;;;;;;6.85;5.40;;;;;;;30.52;35.09;100737.98;2099619;83;27746;-61
2021/08/13 11:21:50;;;;;;;7.33;5.05;;;;;;;30.48;35.02;100742.20;2096627;84;28695;-60
2021/08/13 11:24:52;;;;;;;5.17;4.63;;;;;;;30.41;35.26;100737.11;2096533;84;31437;-61
2021/08/13 11:28:20;;;;;;;4.78;4.37;;;;;;;30.34;35.78;100738.97;2122831;83;33200;-61
2021/08/13 11:31:28;;;;;;;9.08;5.08;;;;;;;30.32;35.56;100737.76;2096133;84;30499;-61
2021/08/13 11:35:01;;;;;;;7.80;5.00;;;;;;;30.17;35.24;100733.69;2090772;84;27627;-61
2021/08/13 11:38:03;;;;;;;5.80;4.55;;;;;;;30.03;35.04;100729.06;2062067;86;29085;-61
2021/08/13 11:41:24;;;;;;;7.45;5.67;;;;;;;29.86;35.32;100725.95;2061573;86;31967;-61
2021/08/13 11:44:26;;;;;;;6.92;4.83;;;;;;;29.79;34.97;100731.06;2061585;86;34262;-61
2021/08/13 11:47:29;;;;;;;9.30;5.83;;;;;;;29.73;35.83;100721.64;2132087;83;30345;-61
2021/08/13 11:50:31;;;;;;;7.47;4.67;;;;;;;29.73;35.92;100722.16;2141739;83;27681;-61
2021/08/13 11:53:36;;;;;;;5.90;4.62;;;;;;;29.68;36.37;100720.84;2141632;81;28069;-61
2021/08/13 11:56:39;;;;;;;11.05;6.10;;;;;;;29.67;35.94;100721.89;2114744;81;32262;-60
2021/08/13 11:59:43;;;;;;;7.72;6.65;;;;;;;29.60;35.86;100710.43;2096466;83;32971;-61
2021/08/13 12:02:46;;;;;;;9.90;5.55;;;;;;;29.56;36.36;100718.22;2096617;83;29386;-61
2021/08/13 12:05:48;;;;;;;6.15;4.55;;;;;;;29.58;36.42;100714.74;2109722;83;27696;-61
2021/08/13 12:08:50;;;;;;;8.20;4.80;;;;;;;29.51;36.88;100703.62;2131232;83;29897;-61
2021/08/13 12:11:52;;;;;;;5.47;4.70;;;;;;;29.47;37.00;100709.72;2110263;83;31858;-61
2021/08/13 12:14:57;;;;;;;6.75;4.20;;;;;;;29.39;36.73;100705.16;2102324;83;34174;-61
2021/08/13 12:18:00;;;;;;;5.42;4.60;;;;;;;29.32;36.93;100706.41;2142110;83;29308;-61
2021/08/13 12:21:07;;;;;;;9.63;5.37;;;;;;;29.28;37.01;100700.92;2141855;83;27628;-61
2021/08/13 12:24:09;;;;;;;9.38;5.62;;;;;;;29.25;36.76;100702.17;2141893;83;28664;-61
2021/08/13 12:27:12;;;;;;;7.05;5.40;;;;;;;29.17;36.61;100687.61;2101286;83;32234;-61
2021/08/13 12:30:21;;;;;;;6.33;5.35;;;;;;;29.14;36.60;100683.84;2096471;84;33554;-61
2021/08/13 12:33:23;;;;;;;6.80;5.40;;;;;;;29.12;36.95;100688.19;2096440;84;30505;-61
2021/08/13 12:36:25;;;;;;;5.15;4.40;;;;;;;29.12;36.70;100706.12;2123724;83;27699;-61
2021/08/13 12:39:28;;;;;;;9.50;5.67;;;;;;;29.15;36.80;100703.50;2141834;83;28653;-60
2021/08/13 12:42:31;;;;;;;6.65;4.65;;;;;;;29.25;37.00;100701.30;2141732;83;31939;-61
2021/08/13 12:45:33;;;;;;;7.45;4.97;;;;;;;29.34;36.63;100685.50;2127766;83;34357;-60
2021/08/13 12:48:36;;;;;;;9.15;5.78;;;;;;;29.42;36.80;100684.08;2096370;84;30177;-60
2021/08/13 12:51:38;;;;;;;7.03;4.62;;;;;;;29.47;36.58;100680.19;2096910;84;27701;-60
2021/08/13 12:54:44;;;;;;;9.03;5.70;;;;;;;29.45;36.63;100678.17;2075720;84;29508;-60
2021/08/13 12:57:46;;;;;;;6.22;4.72;;;;;;;29.51;36.04;100684.83;2104399;84;30619;-60
2021/08/13 13:00:48;;;;;;;6.00;4.70;;;;;;;29.55;36.31;100675.09;2104006;84;32999;-60
2021/08/13 13:04:16;;;;;;;7.22;4.45;;;;;;;29.57;36.47;100661.95;2082196;84;30548;-60
2021/08/13 13:07:38;;;;;;;8.18;4.50;;;;;;;29.60;36.13;100659.35;2076757;84;27628;-61
2021/08/13 13:10:40;;;;;;;4.92;4.37;;;;;;;29.56;36.05;100666.64;2071742;85;29915;-61
2021/08/13 13:13:56;;;;;;;9.35;5.25;;;;;;;29.54;35.92;100670.11;2071646;84;32260;-61
2021/08/13 13:17:06;;;;;;;8.70;4.83;;;;;;;29.51;36.47;100679.31;2073444;84;33836;-60
2021/08/13 13:20:13;;;;;;;7.67;4.90;;;;;;;29.52;36.58;100677.72;2036612;85;29367;-60
2021/08/13 13:23:16;;;;;;;6.40;4.60;;;;;;;29.53;36.44;100679.44;2038127;85;27712;-60
2021/08/13 13:26:19;;;;;;;5.47;4.72;;;;;;;29.47;35.98;100667.77;2090036;84;29443;-60
2021/08/13 13:29:26;;;;;;;9.10;8.20;;;;;;;29.46;35.61;100670.20;2086921;84;31884;-60
2021/08/13 13:32:28;;;;;;;7.65;5.28;;;;;;;29.47;36.17;100669.69;2070143;85;33028;-61
2021/08/13 13:35:31;;;;;;;8.70;7.05;;;;;;;29.44;36.24;100678.35;2072078;84;29663;-61
2021/08/13 13:38:41;;;;;;;5.53;3.87;;;;;;;29.40;36.31;100673.20;2075400;84;27693;-59
2021/08/13 13:41:43;;;;;;;6.67;4.30;;;;;;;29.38;36.05;100667.55;2104475;84;28820;-60
2021/08/13 13:44:45;;;;;;;4.47;4.08;;;;;;;29.35;36.04;100665.17;2104538;82;31821;-60
2021/08/13 13:47:47;;;;;;;7.67;5.65;;;;;;;29.36;36.31;100658.61;2104090;84;33178;-60
2021/08/13 13:50:51;;;;;;;6.08;4.67;;;;;;;29.32;36.12;100648.45;2076835;84;30174;-60
2021/08/13 13:53:53;;;;;;;6.28;5.10;;;;;;;29.30;36.23;100649.16;2089242;84;27730;-60
2021/08/13 13:56:56;;;;;;;6.65;4.40;;;;;;;29.29;36.21;100647.45;2108857;84;28696;-60
2021/08/13 13:59:58;;;;;;;6.87;5.33;;;;;;;29.29;36.18;100645.23;2131829;82;32267;-60
2021/08/13 14:03:00;;;;;;;5.90;4.90;;;;;;;29.25;36.40;100642.84;2151373;82;33791;-61
2021/08/13 14:06:02;;;;;;;6.05;4.83;;;;;;;29.28;36.26;100639.38;2151422;82;30590;-61
2021/08/13 14:09:04;;;;;;;7.70;4.25;;;;;;;29.28;36.23;100638.83;2145819;81;27740;-60
2021/08/13 14:12:07;;;;;;;9.08;5.03;;;;;;;29.30;36.19;100635.36;2151874;82;29067;-60